Time;durP1;ratioP1;P1;durP2;ratioP2;P2;SDS_P1;SDS_P2;PMS_P1;PMS_P2;Temp;Humidity;BMP_temperature;BMP_pressure;BME280_temperature;BME280_humidity;BME280_pressure;Samples;Min_cycle;Max_cycle;Signal;HPM_P1;HPM_P2
2024/02/05 00:01:05;;;;;;;1.73;0.90;;;7.80;90.60;;;8.90;63.05;98421.00;5030491;28;20060;-67
2024/02/05 00:03:34;;;;;;;0.50;0.50;;;7.90;89.90;;;8.81;63.46;98412.03;5032216;28;20052;-67
2024/02/05 00:06:02;;;;;;;0.80;0.70;;;7.90;89.80;;;8.87;63.33;98416.81;5031267;28;20057;-67
2024/02/05 00:08:30;;;;;;;0.43;0.43;;;7.90;89.80;;;8.76;63.61;98428.34;5023487;28;20050;-67
2024/02/05 00:10:57;;;;;;;0.97;0.77;;;7.80;90.20;;;8.77;63.59;98424.72;5031479;28;20048;-66
2024/02/05 00:13:26;;;;;;;0.67;0.50;;;7.80;90.10;;;8.92;62.94;98421.72;5031375;28;20050;-67
2024/02/05 00:15:53;;;;;;;0.67;0.60;;;7.90;89.80;;;8.85;63.35;98422.25;5030715;28;20046;-67
2024/02/05 00:18:21;;;;;;;1.17;0.43;;;7.80;90.10;;;8.87;63.01;98412.31;5031323;28;20052;-67
2024/02/05 00:20:49;;;;;;;1.17;0.70;;;7.80;90.10;;;8.77;63.39;98419.41;5031241;28;20083;-67
2024/02/05 00:23:17;;;;;;;1.03;0.70;;;7.70;90.60;;;8.63;64.11;98407.31;5031224;28;20058;-67
2024/02/05 00:25:44;;;;;;;0.60;0.60;;;7.70;91.20;;;8.72;63.66;98426.06;5013666;28;20076;-66
2024/02/05 00:28:12;;;;;;;1.03;0.70;;;7.70;91.00;;;8.75;63.62;98416.03;5031068;28;20042;-66
2024/02/05 00:30:40;;;;;;;0.80;0.70;;;7.70;91.10;;;8.51;64.42;98415.47;5031256;28;20461;-67
2024/02/05 00:33:08;;;;;;;0.87;0.87;;;7.70;92.10;;;8.65;63.99;98417.81;5030821;28;20052;-68
2024/02/05 00:35:36;;;;;;;0.73;0.73;;;7.70;91.50;;;8.61;64.14;98421.69;5029222;28;20052;-67
2024/02/05 00:38:04;;;;;;;0.60;0.60;;;7.70;91.60;;;8.52;64.60;98414.50;5030530;28;20390;-68
2024/02/05 00:40:31;;;;;;;0.97;0.80;;;7.70;92.30;;;8.54;64.74;98431.97;5031048;28;20050;-67
2024/02/05 00:42:59;;;;;;;0.80;0.80;;;7.60;92.40;;;8.53;64.70;98448.88;5031137;28;20053;-68
2024/02/05 00:45:27;;;;;;;1.53;0.90;;;7.60;92.40;;;8.54;64.47;98434.63;5012397;28;20057;-67
2024/02/05 00:47:55;;;;;;;1.93;0.77;;;7.70;92.20;;;8.44;64.83;98434.56;5031109;28;20050;-67
2024/02/05 00:50:23;;;;;;;1.10;1.00;;;7.70;91.40;;;8.52;64.48;98439.22;5030540;28;20041;-67
2024/02/05 00:52:50;;;;;;;0.77;0.77;;;7.70;91.20;;;8.55;64.38;98446.94;5029807;28;20409;-67
2024/02/05 00:55:18;;;;;;;1.00;0.80;;;7.70;90.80;;;8.54;64.04;98445.25;5030124;28;20053;-67
2024/02/05 00:57:46;;;;;;;0.67;0.60;;;7.70;90.50;;;8.44;64.50;98458.44;5031517;28;20469;-67
2024/02/05 01:00:15;;;;;;;1.03;0.80;;;7.70;91.10;;;8.37;65.17;98456.38;5030398;28;20045;-67
2024/02/05 01:02:42;;;;;;;1.50;1.00;;;7.60;91.50;;;8.46;64.79;98456.50;5031137;28;20060;-67
2024/02/05 01:05:10;;;;;;;1.80;0.83;;;7.60;91.90;;;8.33;65.06;98461.09;5030383;28;20053;-67
2024/02/05 01:07:39;;;;;;;2.03;0.87;;;7.60;92.00;;;8.39;64.89;98451.78;5030415;28;20516;-67
2024/02/05 01:10:07;;;;;;;1.70;1.10;;;7.60;92.10;;;8.44;64.77;98450.47;5030711;28;20045;-67
2024/02/05 01:12:34;;;;;;;1.63;1.13;;;7.60;92.30;;;8.35;65.43;98459.16;5023045;28;20045;-67
2024/02/05 01:15:04;;;;;;;1.30;0.97;;;7.50;92.80;;;8.38;65.23;98452.78;5030597;28;20041;-67
2024/02/05 01:17:32;;;;;;;1.47;1.10;;;7.50;93.00;;;8.60;64.41;98465.13;5030743;28;20034;-67
2024/02/05 01:20:00;;;;;;;1.43;0.87;;;7.60;92.50;;;8.32;65.42;98455.91;5012711;28;20132;-67
2024/02/05 01:22:32;;;;;;;0.93;0.80;;;7.50;93.30;;;8.36;65.08;98463.50;5030939;28;20049;-67
2024/02/05 01:24:59;;;;;;;2.90;0.97;;;7.50;93.40;;;8.44;64.90;98461.09;5030504;28;20045;-67
2024/02/05 01:27:27;;;;;;;0.83;0.70;;;7.50;92.90;;;8.28;65.73;98458.84;5030393;28;20440;-68
2024/02/05 01:29:55;;;;;;;1.27;1.07;;;7.40;93.80;;;8.26;65.79;98481.16;5013017;28;20037;-67
2024/02/05 01:32:22;;;;;;;2.57;1.33;;;7.40;94.30;;;8.26;65.79;98475.88;5027698;28;20046;-67
2024/02/05 01:34:50;;;;;;;3.37;1.13;;;7.40;94.40;;;8.45;65.11;98469.88;5030518;28;20049;-67
2024/02/05 01:37:18;;;;;;;1.70;1.30;;;7.40;94.50;;;8.24;65.82;98475.97;5029000;28;20053;-67
2024/02/05 01:39:45;;;;;;;3.10;1.20;;;7.40;94.60;;;8.26;65.61;98495.28;5030734;28;20425;-67
2024/02/05 01:42:14;;;;;;;2.10;0.93;;;7.40;94.50;;;8.22;65.89;98477.06;5030390;28;20394;-67
2024/02/05 01:44:41;;;;;;;2.30;1.33;;;7.30;94.80;;;8.39;65.30;98483.63;5012652;28;20513;-67
2024/02/05 01:47:09;;;;;;;2.67;1.10;;;7.40;94.60;;;8.25;65.69;98480.31;5012396;28;20056;-67
2024/02/05 01:49:38;;;;;;;2.20;0.90;;;7.40;94.40;;;8.40;65.56;98482.69;5030225;28;20033;-67
2024/02/05 01:52:09;;;;;;;4.10;1.00;;;7.40;93.80;;;8.38;65.47;98480.16;5029552;28;20489;-67
2024/02/05 01:54:39;;;;;;;0.93;0.80;;;7.40;94.10;;;8.40;65.21;98483.50;5004953;28;20057;-67
2024/02/05 01:57:10;;;;;;;1.00;0.90;;;7.40;93.70;;;8.60;64.80;98478.38;5012654;28;20049;-67
2024/02/05 01:59:39;;;;;;;2.10;1.07;;;7.50;93.90;;;8.44;65.30;98468.22;5021444;28;20527;-67
2024/02/05 02:02:07;;;;;;;2.33;1.53;;;7.50;94.50;;;8.52;64.89;98463.09;5031712;28;20053;-67
2024/02/05 02:04:36;;;;;;;1.10;1.00;;;7.50;94.70;;;8.73;64.35;98472.91;5033398;28;20114;-67
2024/02/05 02:07:05;;;;;;;1.33;1.07;;;7.60;93.60;;;8.77;64.28;98453.09;5033703;28;20049;-68
2024/02/05 02:09:33;;;;;;;2.47;1.07;;;7.60;93.40;;;8.79;64.17;98451.97;5032515;28;20038;-67
2024/02/05 02:12:02;;;;;;;3.23;0.93;;;7.60;92.20;;;8.74;64.29;98451.50;5032720;28;20041;-68
2024/02/05 02:14:29;;;;;;;1.53;0.77;;;7.60;92.40;;;8.74;64.07;98458.66;5032191;28;20046;-67
2024/02/05 02:16:58;;;;;;;1.67;0.80;;;7.60;92.50;;;8.74;63.98;98459.47;5033396;28;20104;-68
2024/02/05 02:19:46;;;;;;;0.60;0.57;;;7.60;92.50;;;8.66;64.33;98451.31;5032341;28;20056;-67
2024/02/05 02:23:05;;;;;;;1.77;0.87;;;7.50;92.50;;;8.62;64.25;98460.53;5032349;28;20053;-67
2024/02/05 02:25:38;;;;;;;1.53;0.93;;;7.60;92.00;;;8.67;64.07;98445.91;5026576;28;20468;-67
2024/02/05 02:28:06;;;;;;;1.40;0.97;;;7.60;91.50;;;8.71;63.65;98453.59;5032392;28;20056;-68
2024/02/05 02:30:36;;;;;;;3.60;0.67;;;7.60;91.80;;;8.76;63.70;98446.94;5032301;28;20393;-67
2024/02/05 02:33:36;;;;;;;1.10;0.60;;;7.60;90.60;;;8.63;63.81;98455.09;5032162;28;20528;-67
2024/02/05 02:36:09;;;;;;;1.20;0.93;;;7.60;91.10;;;8.77;63.72;98442.47;5027556;28;20038;-67
2024/02/05 02:38:57;;;;;;;0.63;0.60;;;7.60;91.50;;;8.63;63.85;98446.28;5032027;28;20037;-67
2024/02/05 02:41:30;;;;;;;0.80;0.60;;;7.60;90.50;;;8.86;63.54;98447.00;5032111;28;20045;-67
2024/02/05 02:44:00;;;;;;;0.93;0.60;;;7.70;90.80;;;8.86;63.56;98431.91;5031966;28;20512;-68
2024/02/05 02:46:29;;;;;;;1.67;0.70;;;7.80;90.50;;;9.02;63.21;98435.91;5015877;28;20049;-67
2024/02/05 02:48:57;;;;;;;1.00;0.63;;;7.80;90.30;;;8.99;63.19;98450.25;5032021;28;20045;-67
2024/02/05 02:51:26;;;;;;;0.80;0.80;;;7.80;89.90;;;8.98;62.91;98445.09;5032684;28;20037;-67
2024/02/05 02:53:54;;;;;;;1.40;0.57;;;7.90;89.80;;;8.91;63.16;98442.13;5031788;28;20045;-67
2024/02/05 02:56:22;;;;;;;1.33;1.00;;;7.80;89.80;;;9.01;62.56;98432.38;5032857;28;20072;-67
2024/02/05 02:58:49;;;;;;;0.83;0.60;;;7.90;89.80;;;8.89;63.16;98452.03;5033103;28;20072;-68
2024/02/05 03:01:18;;;;;;;1.60;0.80;;;7.90;90.30;;;8.92;63.02;98442.94;5032722;28;20049;-67
2024/02/05 03:03:47;;;;;;;0.90;0.73;;;7.80;89.30;;;9.06;62.67;98434.66;5031795;28;20052;-67
2024/02/05 03:06:15;;;;;;;0.80;0.80;;;7.90;89.60;;;8.94;62.81;98425.09;5030974;28;20052;-67
2024/02/05 03:08:43;;;;;;;1.27;0.50;;;7.90;89.50;;;8.87;62.93;98440.69;5032801;28;20052;-67
2024/02/05 03:11:10;;;;;;;0.83;0.60;;;7.90;89.40;;;8.75;63.55;98445.25;5032537;28;20049;-67
2024/02/05 03:13:38;;;;;;;0.50;0.50;;;7.80;91.10;;;8.86;63.33;98426.59;5032682;28;20417;-67
2024/02/05 03:16:06;;;;;;;0.63;0.60;;;7.90;89.60;;;9.00;63.08;98443.16;5031192;28;20048;-67
2024/02/05 03:18:34;;;;;;;0.50;0.50;;;7.90;90.20;;;8.70;64.21;98428.84;5032511;28;20497;-67
2024/02/05 03:21:02;;;;;;;0.93;0.93;;;7.80;91.50;;;8.93;63.37;98434.84;5032234;28;20050;-67
2024/02/05 03:23:29;;;;;;;2.10;0.70;;;7.80;91.20;;;9.02;63.34;98433.25;5031144;28;20537;-67
2024/02/05 03:25:57;;;;;;;2.17;0.60;;;7.90;91.50;;;8.84;63.84;98425.88;5031814;28;20072;-67
2024/02/05 03:28:26;;;;;;;0.80;0.50;;;7.80;92.00;;;8.82;63.93;98441.09;5031188;28;20049;-67
2024/02/05 03:30:55;;;;;;;0.80;0.80;;;7.80;92.00;;;8.73;64.57;98427.78;5032388;28;20045;-67
2024/02/05 03:33:23;;;;;;;0.90;0.70;;;7.70;92.90;;;8.81;64.55;98446.53;5032164;28;20052;-68
2024/02/05 03:35:50;;;;;;;1.57;0.90;;;7.80;92.80;;;8.73;64.62;98449.00;5031899;28;20048;-67
2024/02/05 03:38:18;;;;;;;0.50;0.50;;;7.70;92.90;;;8.60;65.13;98443.88;5032231;28;20489;-67
2024/02/05 03:40:46;;;;;;;0.80;0.80;;;7.70;93.30;;;8.59;65.64;98447.53;5031938;28;20185;-67
2024/02/05 03:43:13;;;;;;;1.43;0.93;;;7.70;94.80;;;8.70;65.20;98455.41;5031049;28;20504;-67
2024/02/05 03:45:41;;;;;;;0.80;0.53;;;7.70;95.20;;;8.60;65.66;98438.56;5023778;28;20046;-67
2024/02/05 03:48:09;;;;;;;0.40;0.40;;;7.60;96.00;;;8.58;65.83;98445.81;5030491;28;20056;-67
2024/02/05 03:50:36;;;;;;;0.93;0.83;;;7.60;95.40;;;8.61;65.79;98459.69;5031856;28;20108;-67
2024/02/05 03:53:04;;;;;;;1.53;0.80;;;7.60;95.90;;;8.38;66.55;98434.22;5031926;28;20052;-68
2024/02/05 03:55:32;;;;;;;1.27;0.73;;;7.50;97.10;;;8.40;66.76;98437.56;5029809;28;20421;-68
2024/02/05 03:58:06;;;;;;;0.50;0.50;;;7.50;97.00;;;8.54;66.23;98452.38;5030852;28;20050;-67
2024/02/05 04:00:34;;;;;;;0.70;0.60;;;7.50;96.80;;;8.36;66.83;98434.31;5031706;28;20060;-68
2024/02/05 04:03:01;;;;;;;0.40;0.40;;;7.50;97.00;;;8.48;66.49;98451.06;5031394;28;20520;-68
2024/02/05 04:05:31;;;;;;;0.83;0.73;;;7.50;96.90;;;8.19;67.42;98433.06;5030084;28;20049;-68
2024/02/05 04:07:59;;;;;;;0.50;0.40;;;7.40;98.40;;;8.25;67.69;98437.03;5031598;28;20106;-68
2024/02/05 04:10:27;;;;;;;0.70;0.60;;;7.50;97.90;;;8.35;67.24;98429.97;5013941;28;20041;-68
2024/02/05 04:12:55;;;;;;;1.50;0.70;;;7.50;98.00;;;8.44;66.96;98439.84;5030474;28;20050;-67
2024/02/05 04:15:23;;;;;;;1.27;1.17;;;7.50;97.50;;;8.54;66.57;98425.81;5029850;28;20425;-68
2024/02/05 04:17:50;;;;;;;0.40;0.40;;;7.60;98.00;;;8.44;66.80;98431.91;5031379;28;20453;-67
2024/02/05 04:20:19;;;;;;;0.90;0.70;;;7.60;96.00;;;8.49;66.21;98450.06;5031240;28;20042;-68
2024/02/05 04:22:49;;;;;;;1.00;0.70;;;7.50;95.60;;;8.54;66.54;98444.41;5031403;28;20049;-67
2024/02/05 04:25:17;;;;;;;0.43;0.43;;;7.60;95.20;;;8.63;65.80;98441.81;5030249;28;20041;-67
2024/02/05 04:27:44;;;;;;;2.27;0.90;;;7.60;95.10;;;8.56;65.86;98442.47;5031247;28;20494;-67
2024/02/05 04:30:12;;;;;;;0.47;0.40;;;7.60;94.50;;;8.50;66.11;98429.72;5031225;28;20045;-67
2024/02/05 04:32:40;;;;;;;1.60;0.70;;;7.60;94.80;;;8.54;66.15;98458.50;5026659;28;20042;-68
2024/02/05 04:35:08;;;;;;;1.73;1.37;;;7.60;94.60;;;8.35;66.52;98442.41;5030686;28;20056;-68
2024/02/05 04:37:36;;;;;;;1.13;0.60;;;7.50;95.20;;;8.45;66.36;98444.22;5030902;28;20496;-67
2024/02/05 04:40:04;;;;;;;1.10;1.00;;;7.60;95.20;;;8.47;66.15;98454.69;5031114;28;20041;-67
2024/02/05 04:42:32;;;;;;;0.50;0.50;;;7.60;95.10;;;8.53;66.01;98461.28;5031065;28;20053;-68
2024/02/05 04:45:00;;;;;;;1.07;0.60;;;7.60;93.90;;;8.57;65.68;98442.34;5030597;28;20045;-67
2024/02/05 04:47:27;;;;;;;0.60;0.50;;;7.60;94.00;;;8.53;65.74;98450.66;5030582;28;20049;-67
2024/02/05 04:49:55;;;;;;;0.90;0.60;;;7.60;94.10;;;8.51;65.72;98440.22;5031101;28;20397;-67
2024/02/05 04:52:23;;;;;;;0.40;0.40;;;7.60;93.50;;;8.46;65.80;98440.56;5030923;28;20057;-67
2024/02/05 04:54:50;;;;;;;0.53;0.53;;;7.60;93.00;;;8.51;65.55;98434.03;5030670;28;20408;-67
2024/02/05 04:57:18;;;;;;;0.50;0.50;;;7.60;93.00;;;8.65;65.39;98417.81;5030753;28;20120;-67
2024/02/05 04:59:45;;;;;;;2.03;0.63;;;7.70;93.10;;;8.64;65.00;98424.06;5031029;28;20049;-67
2024/02/05 05:02:13;;;;;;;0.77;0.50;;;7.70;91.50;;;8.67;64.68;98424.66;5029613;28;20053;-67
2024/02/05 05:04:42;;;;;;;1.93;0.50;;;7.80;90.60;;;8.61;65.02;98411.91;5029119;28;20050;-67
2024/02/05 05:07:10;;;;;;;0.57;0.57;;;7.80;91.00;;;8.62;64.72;98413.56;5029760;28;20045;-67
2024/02/05 05:09:38;;;;;;;0.50;0.50;;;7.70;90.80;;;8.54;64.93;98416.03;5030518;28;20049;-67
2024/02/05 05:12:08;;;;;;;0.60;0.60;;;7.70;90.60;;;8.57;64.60;98406.97;5030707;28;20416;-67
2024/02/05 05:14:37;;;;;;;0.50;0.50;;;7.70;90.60;;;8.63;64.50;98404.66;5030404;28;20037;-67
2024/02/05 05:17:05;;;;;;;0.50;0.50;;;7.80;90.60;;;8.65;64.37;98415.16;5029537;28;20433;-67
2024/02/05 05:19:32;;;;;;;0.40;0.40;;;7.80;89.50;;;8.53;64.66;98413.50;5030448;28;20497;-67
2024/02/05 05:22:00;;;;;;;0.53;0.53;;;7.80;89.60;;;8.73;63.75;98403.88;5029659;28;20057;-68
2024/02/05 05:24:27;;;;;;;0.40;0.40;;;7.80;89.00;;;8.60;64.17;98415.53;5029088;28;20052;-67
2024/02/05 05:26:55;;;;;;;0.50;0.50;;;7.80;89.30;;;8.60;64.05;98426.13;5030505;28;20054;-67
2024/02/05 05:29:23;;;;;;;0.50;0.50;;;7.80;89.30;;;8.60;64.03;98417.34;5029387;28;20057;-67
2024/02/05 05:31:50;;;;;;;1.43;0.40;;;7.80;89.10;;;8.51;64.34;98418.09;5030298;28;20044;-67
2024/02/05 05:34:19;;;;;;;2.60;0.70;;;7.80;89.00;;;8.76;63.87;98404.47;5029945;28;20041;-67
2024/02/05 05:36:47;;;;;;;0.50;0.50;;;7.80;89.00;;;8.83;63.25;98423.34;5024791;28;20397;-67
2024/02/05 05:39:15;;;;;;;1.90;1.50;;;7.90;88.30;;;8.83;63.32;98412.72;5033728;28;20417;-67
2024/02/05 05:41:43;;;;;;;1.10;0.90;;;7.90;88.90;;;8.93;63.11;98413.63;5034178;28;20468;-67
2024/02/05 05:44:10;;;;;;;0.73;0.70;;;8.00;88.30;;;9.10;62.92;98412.16;5034076;28;20045;-67
2024/02/05 05:46:38;;;;;;;0.80;0.63;;;8.00;88.20;;;9.15;62.39;98415.28;5033929;28;20046;-67
2024/02/05 05:49:05;;;;;;;1.40;0.73;;;8.00;87.20;;;9.15;62.25;98423.25;5034278;28;20041;-67
2024/02/05 05:51:34;;;;;;;1.17;0.60;;;8.00;87.60;;;9.13;62.05;98421.69;5032734;28;20052;-67
2024/02/05 05:54:02;;;;;;;1.70;0.80;;;8.00;86.90;;;9.12;62.17;98426.16;5033663;28;20037;-67
2024/02/05 05:56:30;;;;;;;2.07;0.70;;;8.00;86.80;;;9.23;62.07;98425.25;5033891;28;20033;-67
2024/02/05 05:58:58;;;;;;;0.93;0.90;;;8.00;87.30;;;9.32;61.66;98426.22;5034101;28;20042;-67
2024/02/05 06:01:25;;;;;;;0.70;0.60;;;8.10;86.60;;;9.30;61.43;98422.88;5033749;28;20052;-67
2024/02/05 06:03:53;;;;;;;1.90;1.40;;;8.10;86.50;;;9.39;61.39;98425.56;5033651;28;20041;-67
2024/02/05 06:06:21;;;;;;;2.03;1.53;;;8.10;86.90;;;9.45;61.52;98427.69;5033492;28;20042;-67
2024/02/05 06:08:48;;;;;;;3.33;1.40;;;8.20;86.60;;;9.42;61.11;98440.38;5033469;28;20052;-67
2024/02/05 06:11:16;;;;;;;2.40;1.37;;;8.20;85.40;;;9.50;61.12;98451.22;5033808;28;20493;-67
2024/02/05 06:13:43;;;;;;;3.37;1.53;;;8.30;86.10;;;9.54;61.13;98446.44;5032437;28;20034;-68
2024/02/05 06:16:11;;;;;;;1.87;0.77;;;8.30;85.80;;;9.52;60.77;98443.94;5033260;28;20034;-67
2024/02/05 06:18:39;;;;;;;0.70;0.70;;;8.30;85.90;;;9.59;60.81;98441.56;5032725;28;20044;-68
2024/02/05 06:21:07;;;;;;;1.40;1.00;;;8.30;85.30;;;9.68;60.57;98448.75;5033538;28;20041;-68
2024/02/05 06:23:34;;;;;;;1.70;1.37;;;8.40;85.50;;;9.76;60.50;98459.53;5032130;28;20051;-68
2024/02/05 06:26:03;;;;;;;2.53;2.33;;;8.40;84.70;;;9.76;60.42;98445.41;5031632;28;20056;-67
2024/02/05 06:28:30;;;;;;;1.27;1.17;;;8.40;84.50;;;9.82;60.21;98445.69;5032052;28;20046;-68
2024/02/05 06:30:58;;;;;;;2.70;1.47;;;8.40;84.80;;;9.83;60.24;98436.75;5033452;28;20038;-67
2024/02/05 06:33:26;;;;;;;2.73;1.70;;;8.50;84.90;;;9.93;60.26;98442.06;5033525;28;20042;-67
2024/02/05 06:35:53;;;;;;;2.13;1.63;;;8.50;84.00;;;9.94;60.07;98446.41;5033043;28;20048;-66
2024/02/05 06:38:21;;;;;;;1.63;1.10;;;8.50;83.90;;;9.83;60.01;98441.22;5033150;28;20049;-65
2024/02/05 06:40:49;;;;;;;1.40;0.90;;;8.50;83.50;;;9.89;59.66;98435.34;5033353;28;20422;-64
2024/02/05 06:43:17;;;;;;;2.63;1.07;;;8.50;84.20;;;9.86;59.81;98433.78;5032837;28;20452;-70
2024/02/05 06:45:45;;;;;;;2.97;1.20;;;8.50;83.90;;;9.92;59.73;98437.72;5013998;28;20049;-66
2024/02/05 06:48:12;;;;;;;3.10;2.10;;;8.60;84.00;;;9.96;59.49;98441.78;5032701;28;20041;-67
2024/02/05 06:50:40;;;;;;;2.17;1.37;;;8.50;83.60;;;9.97;59.82;98434.66;5032978;28;20121;-69
2024/02/05 06:53:07;;;;;;;3.10;1.67;;;8.60;83.50;;;10.02;59.27;98451.91;5032915;28;20037;-63
2024/02/05 06:55:35;;;;;;;3.17;1.53;;;8.60;82.00;;;9.99;59.25;98449.50;5032628;28;20394;-64
2024/02/05 06:58:03;;;;;;;2.27;1.40;;;8.60;82.90;;;9.98;59.11;98452.28;5033140;28;20041;-64
2024/02/05 07:00:32;;;;;;;3.00;1.60;;;8.60;81.50;;;9.91;59.01;98453.84;5015374;28;20049;-65
2024/02/05 07:02:59;;;;;;;3.00;0.90;;;8.50;82.20;;;9.91;59.19;98453.84;5032915;28;20049;-63
2024/02/05 07:05:27;;;;;;;4.30;2.23;;;8.50;82.10;;;9.95;59.07;98464.06;5032270;28;20049;-63
2024/02/05 07:07:55;;;;;;;4.63;2.03;;;8.60;81.80;;;10.01;58.72;98460.84;5032559;28;20053;-64
2024/02/05 07:10:22;;;;;;;4.43;2.80;;;8.50;82.20;;;9.96;58.48;98467.56;5032540;28;20056;-64
2024/02/05 07:12:51;;;;;;;3.33;1.30;;;8.60;81.90;;;10.03;58.96;98472.19;5024327;28;20038;-65
2024/02/05 07:15:18;;;;;;;4.37;2.00;;;8.60;82.00;;;10.11;58.80;98481.31;5032214;28;20504;-65
2024/02/05 07:17:47;;;;;;;10.07;3.40;;;8.60;81.20;;;10.15;58.62;98477.38;5032405;28;20037;-64
2024/02/05 07:20:16;;;;;;;2.87;1.20;;;8.70;81.80;;;10.18;58.57;98488.59;5032710;28;20523;-64
2024/02/05 07:22:44;;;;;;;10.47;6.47;;;8.70;81.00;;;10.23;58.33;98483.69;5031810;28;20073;-64
2024/02/05 07:25:12;;;;;;;9.83;6.67;;;8.80;81.60;;;10.31;58.16;98495.50;5032011;28;20046;-64
2024/02/05 07:27:39;;;;;;;8.20;2.60;;;8.80;81.50;;;10.33;58.04;98486.41;5032477;28;20056;-65
2024/02/05 07:30:08;;;;;;;1.57;1.30;;;8.80;81.20;;;10.36;58.01;98486.13;5032297;28;20041;-66
2024/02/05 07:32:36;;;;;;;3.80;1.40;;;8.80;81.10;;;10.41;58.28;98485.69;5031136;28;20421;-64
2024/02/05 07:35:05;;;;;;;6.93;2.67;;;8.80;81.00;;;10.42;57.87;98490.88;5028276;28;20038;-64
2024/02/05 07:37:36;;;;;;;3.13;1.63;;;8.80;81.60;;;10.44;58.11;98485.44;5023557;28;20044;-64
2024/02/05 07:40:04;;;;;;;3.13;1.80;;;8.80;81.00;;;10.46;57.81;98483.47;5026033;28;20046;-65
2024/02/05 07:42:32;;;;;;;3.20;1.60;;;8.80;80.60;;;10.42;57.24;98490.88;5028739;28;20404;-65
2024/02/05 07:45:00;;;;;;;3.10;1.10;;;8.70;79.60;;;10.40;57.43;98479.53;5026696;28;20512;-66
2024/02/05 07:47:28;;;;;;;3.23;1.47;;;8.70;80.00;;;10.41;57.59;98488.34;5028915;28;20432;-68
2024/02/05 07:49:55;;;;;;;3.87;2.53;;;8.80;80.70;;;10.42;57.55;98488.22;5031760;28;20417;-66
2024/02/05 07:52:23;;;;;;;6.00;3.77;;;8.80;80.10;;;10.44;56.92;98482.75;5031885;28;20042;-65
2024/02/05 07:54:51;;;;;;;3.57;1.60;;;8.90;80.00;;;10.45;57.30;98489.78;5023564;28;20041;-65
2024/02/05 07:57:19;;;;;;;3.10;2.27;;;8.90;79.90;;;10.50;57.15;98494.69;5030601;28;20041;-66
2024/02/05 07:59:48;;;;;;;2.30;1.47;;;8.90;79.90;;;10.53;57.20;98492.59;5029815;28;20412;-66
2024/02/05 08:02:15;;;;;;;3.63;1.50;;;9.00;79.30;;;10.58;57.14;98492.16;5031855;28;20086;-65
2024/02/05 08:04:43;;;;;;;3.30;1.67;;;9.00;79.60;;;10.61;57.00;98494.53;5029836;28;20046;-65
2024/02/05 08:07:11;;;;;;;2.90;1.03;;;9.00;79.30;;;10.61;56.98;98495.38;5030368;28;20037;-65
2024/02/05 08:09:48;;;;;;;2.07;0.90;;;9.10;79.30;;;10.63;56.90;98498.75;5031533;28;20033;-67
2024/02/05 08:12:19;;;;;;;2.60;1.47;;;9.10;79.70;;;10.62;56.77;98483.75;5030640;28;20033;-68
2024/02/05 08:14:46;;;;;;;8.10;2.87;;;9.00;78.00;;;10.59;56.50;98485.84;5030912;28;20045;-67
2024/02/05 08:17:14;;;;;;;3.50;1.70;;;9.00;77.60;;;10.61;56.84;98495.38;5031558;28;20038;-67
2024/02/05 08:19:41;;;;;;;1.37;1.00;;;9.00;78.60;;;10.65;56.78;98493.28;5031367;28;20049;-67
2024/02/05 08:22:10;;;;;;;2.80;1.20;;;9.10;79.00;;;10.69;57.02;98500.00;5031710;28;20412;-68
2024/02/05 08:24:38;;;;;;;4.30;1.20;;;9.10;78.50;;;10.71;57.13;98490.03;5031247;28;20401;-67
2024/02/05 08:27:06;;;;;;;4.73;1.43;;;9.10;79.20;;;10.73;56.34;98489.91;5031093;28;20060;-67
2024/02/05 08:29:33;;;;;;;3.37;1.10;;;9.10;78.60;;;10.75;56.45;98498.59;5013713;28;20078;-67
2024/02/05 08:32:01;;;;;;;2.80;1.30;;;9.10;79.00;;;10.77;56.25;98491.31;5031357;28;20467;-68
2024/02/05 08:34:29;;;;;;;3.80;1.40;;;9.10;78.80;;;10.78;56.57;98501.00;5030747;28;20366;-67
2024/02/05 08:36:57;;;;;;;4.50;0.80;;;9.10;78.50;;;10.81;56.07;98500.69;5030628;28;20148;-67
2024/02/05 08:39:25;;;;;;;1.70;0.83;;;9.10;78.60;;;10.82;56.21;98500.56;5028707;28;20517;-66
2024/02/05 08:41:52;;;;;;;3.37;1.20;;;9.10;78.70;;;10.84;55.79;98493.25;5031492;28;20416;-65
2024/02/05 08:44:24;;;;;;;5.00;2.57;;;9.20;78.20;;;10.83;55.99;98499.56;5030714;28;20508;-66
2024/02/05 08:46:53;;;;;;;3.07;1.43;;;9.20;78.00;;;10.87;56.13;98501.94;5030724;28;20517;-65
2024/02/05 08:49:21;;;;;;;5.57;2.30;;;9.30;77.80;;;10.90;55.83;98497.19;5031136;28;20515;-66
2024/02/05 08:51:51;;;;;;;3.57;1.40;;;9.40;77.00;;;10.78;55.18;98506.31;5033541;28;20398;-65
2024/02/05 08:54:18;;;;;;;6.57;2.10;;;9.30;74.70;;;10.65;55.90;98501.25;5030670;28;20416;-65
2024/02/05 08:56:46;;;;;;;5.20;1.50;;;9.30;76.60;;;10.70;55.92;98504.34;5030719;28;20413;-65
2024/02/05 08:59:14;;;;;;;7.17;3.33;;;9.30;76.80;;;10.79;55.85;98506.16;5030987;28;20044;-65
2024/02/05 09:01:42;;;;;;;8.33;1.53;;;9.40;77.20;;;10.88;55.74;98493.81;5031080;28;20049;-65
2024/02/05 09:04:10;;;;;;;2.47;1.60;;;9.40;76.80;;;10.99;55.94;98495.47;5030625;28;20117;-66
2024/02/05 09:06:38;;;;;;;5.57;1.60;;;9.50;76.70;;;11.04;55.60;98499.38;5030557;28;20045;-65
2024/02/05 09:09:07;;;;;;;6.60;1.87;;;9.60;76.30;;;11.03;55.03;98492.38;5031096;28;20052;-65
2024/02/05 09:11:35;;;;;;;4.17;1.80;;;9.60;74.90;;;11.03;55.21;98494.19;5034403;28;20041;-65
2024/02/05 09:14:12;;;;;;;5.33;3.30;;;9.60;76.20;;;11.13;55.09;98497.69;5034065;28;20038;-65
2024/02/05 09:16:39;;;;;;;5.77;3.30;;;9.70;75.30;;;11.17;55.10;98498.25;5034792;28;20448;-65
2024/02/05 09:19:07;;;;;;;6.47;1.70;;;9.70;76.30;;;11.15;55.02;98492.22;5034963;28;20044;-65
2024/02/05 09:21:35;;;;;;;9.17;3.50;;;9.70;73.70;;;11.20;55.21;98495.28;5034950;28;20409;-66
2024/02/05 09:24:03;;;;;;;3.97;2.30;;;9.70;75.70;;;11.25;54.89;98484.22;5032981;28;20041;-65
2024/02/05 09:26:30;;;;;;;3.93;1.40;;;9.70;75.50;;;11.26;54.72;98484.03;5034761;28;20369;-65
2024/02/05 09:28:58;;;;;;;3.00;1.60;;;9.80;76.00;;;11.27;55.15;98483.06;5033513;28;20068;-65
2024/02/05 09:31:25;;;;;;;3.67;1.23;;;9.70;74.90;;;11.20;55.00;98476.63;5034471;28;20094;-65
2024/02/05 09:33:53;;;;;;;5.77;1.47;;;9.50;76.60;;;11.25;54.79;98489.53;5033202;28;20037;-65
2024/02/05 09:36:22;;;;;;;5.37;3.10;;;9.50;76.80;;;11.13;54.67;98488.88;5033967;28;20038;-65
2024/02/05 09:38:50;;;;;;;4.17;1.70;;;9.50;75.20;;;11.16;54.76;98485.91;5033722;28;20045;-65
2024/02/05 09:41:32;;;;;;;4.70;2.00;;;9.50;75.70;;;11.17;54.70;98485.75;5033916;28;20064;-65
2024/02/05 09:44:00;;;;;;;4.00;2.07;;;9.60;76.00;;;11.06;54.21;98495.75;5023987;28;20053;-64
2024/02/05 09:46:32;;;;;;;3.60;1.30;;;9.50;74.60;;;10.83;54.38;98493.38;5016785;28;20049;-65
2024/02/05 09:49:03;;;;;;;5.70;2.30;;;9.40;74.20;;;10.95;54.49;98489.59;5025641;28;20045;-64
2024/02/05 09:51:41;;;;;;;5.87;1.53;;;9.50;75.80;;;11.00;54.96;98484.66;5033179;28;20489;-65
2024/02/05 09:54:09;;;;;;;4.90;1.53;;;9.50;75.30;;;11.07;54.97;98482.28;5022555;28;20041;-65
2024/02/05 09:56:50;;;;;;;4.73;1.60;;;9.50;75.60;;;11.12;54.49;98484.50;5025239;28;20463;-65
2024/02/05 09:59:18;;;;;;;2.87;1.67;;;9.60;74.90;;;11.15;54.64;98490.41;5024728;28;20056;-65
2024/02/05 10:01:46;;;;;;;4.90;1.80;;;9.60;75.00;;;11.15;54.42;98484.22;5025898;28;20501;-65
2024/02/05 10:04:17;;;;;;;4.77;3.53;;;9.70;74.70;;;11.17;54.87;98485.75;5027800;28;20050;-65
2024/02/05 10:06:50;;;;;;;4.43;3.10;;;9.70;74.90;;;11.15;54.82;98482.41;5024154;28;20076;-65
2024/02/05 10:09:21;;;;;;;4.93;3.37;;;9.70;75.00;;;11.14;54.22;98483.38;5026273;28;20053;-65
2024/02/05 10:11:52;;;;;;;12.83;6.47;;;9.70;74.50;;;11.19;54.25;98475.78;5027323;28;20041;-65
2024/02/05 10:14:25;;;;;;;8.07;4.27;;;9.80;74.70;;;11.20;54.16;98469.47;5022633;28;20421;-65
2024/02/05 10:16:57;;;;;;;4.60;2.17;;;9.70;74.60;;;11.26;54.60;98470.72;5023372;28;20046;-65
2024/02/05 10:19:26;;;;;;;5.33;2.17;;;9.80;74.70;;;11.31;54.19;98475.63;5024539;28;20535;-66
2024/02/05 10:21:56;;;;;;;4.90;2.17;;;9.80;74.30;;;11.32;54.53;98474.63;5026987;28;20048;-65
2024/02/05 10:24:24;;;;;;;7.97;2.37;;;9.80;73.60;;;11.17;53.81;98485.75;5027036;28;20059;-65
2024/02/05 10:26:51;;;;;;;5.57;2.00;;;9.80;72.00;;;11.26;54.40;98469.88;5028300;28;20056;-64
2024/02/05 10:29:23;;;;;;;4.53;1.87;;;9.90;73.90;;;11.30;54.26;98469.47;5033711;28;20143;-64
2024/02/05 10:31:53;;;;;;;15.77;3.47;;;9.90;73.90;;;11.34;54.31;98465.50;5033274;28;20049;-64
2024/02/05 10:34:22;;;;;;;5.23;2.60;;;10.00;73.70;;;11.28;54.11;98466.06;5028465;28;20488;-64
2024/02/05 10:36:51;;;;;;;2.93;1.67;;;10.00;73.10;;;11.35;54.36;98466.34;5030995;28;20049;-65